TimeEST,TemperatureF,Dew PointF,Humidity,Sea Level PressureIn,VisibilityMPH,Wind Direction,Wind SpeedMPH,Gust SpeedMPH,PrecipitationIn,Events,Conditions,WindDirDegrees,DateUTC
12:53 AM,71.1,66.9,87,30.01,10.0,South,4.6,-,N/A,,Clear,190,2013-01-31 05:53:00
1:53 AM,70.0,66.9,90,30.00,10.0,South,3.5,-,N/A,,Clear,190,2013-01-31 06:53:00
2:53 AM,71.1,68.0,90,29.99,10.0,South,3.5,-,N/A,,Clear,180,2013-01-31 07:53:00
3:53 AM,71.1,69.1,93,29.98,10.0,SSW,3.5,-,N/A,,Clear,210,2013-01-31 08:53:00
4:53 AM,70.0,69.1,97,29.97,10.0,South,5.8,-,N/A,,Clear,180,2013-01-31 09:53:00
5:53 AM,70.0,69.1,97,29.99,10.0,SSW,4.6,-,N/A,,Clear,200,2013-01-31 10:53:00
6:53 AM,70.0,69.1,97,30.00,10.0,South,4.6,-,N/A,,Clear,190,2013-01-31 11:53:00
7:53 AM,72.0,70.0,93,30.02,10.0,South,4.6,-,N/A,,Partly Cloudy,190,2013-01-31 12:53:00
8:27 AM,71.6,68.0,88,30.06,10.0,WNW,16.1,24.2,N/A,,Mostly Cloudy,300,2013-01-31 13:27:00
8:43 AM,64.4,60.8,88,30.07,10.0,NW,10.4,21.9,0.00,Rain,Light Rain,310,2013-01-31 13:43:00
8:53 AM,64.0,61.0,90,30.09,10.0,WNW,8.1,16.1,0.01,Rain,Light Rain,300,2013-01-31 13:53:00
9:21 AM,64.4,60.8,88,30.10,10.0,NW,9.2,-,0.00,,Overcast,310,2013-01-31 14:21:00
9:53 AM,64.0,61.0,90,30.11,10.0,WNW,8.1,16.1,0.00,,Overcast,300,2013-01-31 14:53:00
10:26 AM,64.4,59.0,83,30.12,10.0,NW,10.4,19.6,N/A,,Mostly Cloudy,320,2013-01-31 15:26:00
10:53 AM,64.0,57.0,78,30.13,10.0,NW,10.4,20.7,N/A,,Mostly Cloudy,320,2013-01-31 15:53:00
11:53 AM,69.1,59.0,70,30.11,10.0,Variable,5.8,-,N/A,,Mostly Cloudy,0,2013-01-31 16:53:00
12:53 PM,66.0,57.0,73,30.10,10.0,WNW,6.9,-,N/A,,Overcast,300,2013-01-31 17:53:00
1:53 PM,66.0,53.1,63,30.08,10.0,NNW,5.8,-,N/A,,Overcast,340,2013-01-31 18:53:00
2:53 PM,66.0,52.0,60,30.07,10.0,NNW,8.1,-,N/A,,Overcast,340,2013-01-31 19:53:00
3:53 PM,64.9,53.1,65,30.09,10.0,NNW,6.9,-,N/A,,Overcast,330,2013-01-31 20:53:00
4:53 PM,66.0,50.0,56,30.11,10.0,North,5.8,-,N/A,,Overcast,350,2013-01-31 21:53:00
5:53 PM,66.0,52.0,60,30.12,10.0,North,4.6,-,N/A,,Mostly Cloudy,10,2013-01-31 22:53:00
6:53 PM,64.9,51.1,61,30.13,10.0,NNE,4.6,-,N/A,,Mostly Cloudy,30,2013-01-31 23:53:00
7:53 PM,64.9,50.0,58,30.15,10.0,Calm,Calm,-,N/A,,Scattered Clouds,0,2013-02-01 00:53:00
8:53 PM,64.0,51.1,63,30.16,10.0,Calm,Calm,-,N/A,,Clear,0,2013-02-01 01:53:00
9:53 PM,64.0,43.0,46,30.18,10.0,NNW,8.1,-,N/A,,Clear,340,2013-02-01 02:53:00
10:53 PM,61.0,39.0,44,30.19,10.0,NNW,6.9,-,N/A,,Clear,340,2013-02-01 03:53:00
11:53 PM,60.1,37.9,44,30.18,10.0,NNW,5.8,-,N/A,,Clear,330,2013-02-01 04:53:00